createdAt,value
2023-02-18T00:00:46.308Z,3.96
2023-02-18T00:01:47.869Z,3.98
2023-02-18T00:02:52.271Z,3.98
2023-02-18T00:03:54.324Z,4.01
2023-02-18T00:04:56.018Z,4.02
2023-02-18T00:05:57.638Z,4.03
2023-02-18T00:06:59.676Z,4.06
2023-02-18T00:08:01.202Z,4.07
2023-02-18T00:09:04.291Z,4.07
2023-02-18T00:10:10.038Z,4.07
2023-02-18T00:11:13.026Z,4.07
2023-02-18T00:12:14.558Z,3.96
2023-02-18T00:13:16.252Z,3.93
2023-02-18T00:14:17.929Z,3.91
2023-02-18T00:15:19.652Z,3.90
2023-02-18T00:16:22.531Z,3.91
2023-02-18T00:17:24.531Z,3.92
2023-02-18T00:18:26.080Z,3.92
2023-02-18T00:19:27.737Z,3.90
2023-02-18T00:20:29.316Z,3.88
2023-02-18T00:21:33.483Z,3.86
2023-02-18T00:22:35.422Z,3.88
2023-02-18T00:23:36.951Z,3.86
2023-02-18T00:24:39.159Z,3.84
2023-02-18T00:25:40.700Z,3.81
2023-02-18T00:26:42.293Z,3.78
2023-02-18T00:27:43.872Z,3.74
2023-02-18T00:28:45.829Z,3.71
2023-02-18T00:29:47.414Z,3.54
2023-02-18T00:30:48.952Z,3.38
2023-02-18T00:31:50.583Z,3.37
2023-02-18T00:32:52.203Z,3.41
2023-02-18T00:33:54.304Z,3.41
2023-02-18T00:34:55.840Z,3.32
2023-02-18T00:36:05.876Z,3.22
2023-02-18T00:37:07.780Z,3.22
2023-02-18T00:38:09.410Z,3.24
2023-02-18T00:39:11.954Z,3.27
2023-02-18T00:40:13.522Z,3.29
2023-02-18T00:41:15.664Z,3.32
2023-02-18T00:42:17.258Z,3.35
2023-02-18T00:43:18.812Z,3.37
2023-02-18T00:44:20.402Z,3.38
2023-02-18T00:45:21.978Z,3.42
2023-02-18T00:46:25.161Z,3.43
2023-02-18T00:47:26.751Z,3.45
2023-02-18T00:48:28.433Z,3.42
2023-02-18T00:49:30.139Z,3.35
2023-02-18T00:50:31.712Z,3.33
2023-02-18T00:51:34.134Z,3.30
2023-02-18T00:52:35.669Z,3.26
2023-02-18T00:53:37.851Z,3.23
2023-02-18T00:54:39.407Z,3.17
2023-02-18T00:55:45.464Z,3.03
2023-02-18T00:56:47.114Z,2.83
2023-02-18T00:57:48.717Z,2.67
2023-02-18T00:58:50.772Z,2.48
2023-02-18T00:59:52.434Z,2.20
2023-02-18T01:00:54.724Z,2.05
2023-02-18T01:01:56.316Z,2.03
2023-02-18T01:02:57.926Z,1.87
2023-02-18T01:03:59.527Z,1.77
2023-02-18T01:05:01.121Z,1.69
2023-02-18T01:06:03.639Z,1.59
2023-02-18T01:07:05.182Z,1.53
2023-02-18T01:08:07.858Z,1.52
2023-02-18T01:09:10.149Z,1.65
2023-02-18T01:10:11.768Z,1.77
2023-02-18T01:11:13.775Z,1.89
2023-02-18T01:12:16.203Z,1.96
2023-02-18T01:13:17.845Z,2.00
2023-02-18T01:14:19.473Z,2.03
2023-02-18T01:15:22.071Z,2.05
2023-02-18T01:16:24.472Z,2.15
2023-02-18T01:17:26.261Z,2.24
2023-02-18T01:18:28.151Z,2.35
2023-02-18T01:19:29.713Z,2.44
2023-02-18T01:20:31.326Z,2.53
2023-02-18T01:21:32.897Z,2.60
2023-02-18T01:22:34.461Z,2.68
2023-02-18T01:23:38.238Z,2.75
2023-02-18T01:24:39.851Z,2.82
2023-02-18T01:25:41.940Z,2.86
2023-02-18T01:26:43.473Z,2.90
2023-02-18T01:27:45.132Z,2.95
2023-02-18T01:28:46.865Z,2.98
2023-02-18T01:29:48.459Z,3.00
2023-02-18T01:30:51.354Z,3.03
2023-02-18T01:31:53.734Z,3.02
2023-02-18T01:32:56.523Z,3.03
2023-02-18T01:33:58.110Z,3.03
2023-02-18T01:35:06.510Z,3.07
2023-02-18T01:36:09.501Z,3.06
2023-02-18T01:37:11.391Z,3.07
2023-02-18T01:38:12.994Z,3.07
2023-02-18T01:39:14.527Z,3.07
2023-02-18T01:40:18.551Z,3.07
2023-02-18T01:41:20.393Z,3.08
2023-02-18T01:42:26.403Z,3.07
2023-02-18T01:43:27.985Z,3.00
2023-02-18T01:44:30.381Z,2.89
2023-02-18T01:45:35.180Z,2.74
2023-02-18T01:46:36.753Z,2.52
2023-02-18T01:47:38.297Z,2.27
2023-02-18T01:48:44.366Z,2.07
2023-02-18T01:49:50.763Z,1.93
2023-02-18T01:51:04.379Z,1.73
2023-02-18T01:52:11.763Z,1.60
2023-02-18T01:53:16.824Z,1.64
2023-02-18T01:54:20.435Z,1.73
2023-02-18T01:55:22.096Z,1.84
2023-02-18T01:57:13.099Z,1.98
2023-02-18T01:58:15.644Z,2.11
2023-02-18T01:59:24.034Z,2.19
2023-02-18T02:00:25.876Z,2.26
2023-02-18T02:01:27.967Z,2.33
2023-02-18T02:02:31.909Z,2.40
2023-02-18T02:03:33.444Z,2.36
2023-02-18T02:04:35.026Z,2.27
2023-02-18T02:05:36.604Z,2.24
2023-02-18T02:06:38.543Z,2.31
2023-02-18T02:07:42.181Z,2.35
2023-02-18T02:08:45.914Z,2.47
2023-02-18T02:09:49.116Z,2.39
2023-02-18T02:11:06.619Z,2.31
2023-02-18T02:12:36.492Z,2.31
2023-02-18T02:14:15.603Z,2.32
2023-02-18T02:15:41.994Z,2.34
2023-02-18T02:17:08.777Z,2.27
2023-02-18T02:18:35.054Z,2.00
2023-02-18T02:19:48.758Z,1.77
2023-02-18T02:21:20.943Z,1.67
2023-02-18T02:23:01.109Z,1.58
2023-02-18T02:24:33.301Z,1.37
2023-02-18T02:26:01.338Z,1.27
2023-02-18T02:27:19.878Z,1.13
2023-02-18T02:29:13.512Z,0.93
2023-02-18T02:30:40.932Z,0.80
2023-02-18T02:31:45.535Z,0.78
2023-02-18T02:33:11.430Z,0.77
2023-02-18T02:34:46.975Z,0.82
2023-02-18T02:35:57.018Z,0.77
2023-02-18T02:37:34.827Z,0.75
2023-02-18T02:39:07.260Z,0.66
2023-02-18T02:40:27.205Z,0.68
2023-02-18T02:41:37.964Z,0.71
2023-02-18T02:42:52.072Z,0.77
2023-02-18T02:44:01.476Z,0.77
2023-02-18T02:45:21.990Z,0.79
2023-02-18T02:46:31.518Z,0.79
2023-02-18T02:47:45.559Z,0.88
2023-02-18T02:49:09.236Z,0.89
2023-02-18T02:50:18.267Z,0.94
2023-02-18T02:51:32.442Z,0.97
2023-02-18T02:52:41.104Z,1.06
2023-02-18T02:53:44.027Z,1.18
2023-02-18T02:54:45.639Z,1.28
2023-02-18T02:55:47.442Z,1.34
2023-02-18T02:56:49.134Z,1.26
2023-02-18T02:57:55.266Z,1.23
2023-02-18T02:59:03.202Z,1.17
2023-02-18T03:00:10.487Z,1.09
2023-02-18T03:01:38.070Z,0.75
2023-02-18T03:02:45.477Z,0.42
2023-02-18T03:04:05.426Z,0.21
2023-02-18T03:05:37.303Z,0.07
2023-02-18T03:06:57.426Z,0.01
2023-02-18T03:08:12.485Z,-0.01
2023-02-18T03:09:21.683Z,0.00
2023-02-18T03:10:50.393Z,0.05
2023-02-18T03:12:03.101Z,0.01
2023-02-18T03:13:42.915Z,-0.02
2023-02-18T03:14:59.553Z,0.02
2023-02-18T03:16:19.963Z,0.07
2023-02-18T03:17:25.066Z,0.07
2023-02-18T03:18:51.150Z,0.13
2023-02-18T03:20:07.351Z,0.14
2023-02-18T03:21:22.041Z,0.21
2023-02-18T03:22:29.214Z,0.23
2023-02-18T03:23:39.994Z,0.26
2023-02-18T03:24:47.101Z,0.26
2023-02-18T03:25:50.114Z,0.26
2023-02-18T03:26:56.480Z,0.27
2023-02-18T03:28:03.030Z,0.29
2023-02-18T03:29:08.631Z,0.33
2023-02-18T03:30:18.151Z,0.30
2023-02-18T03:31:23.262Z,0.27
2023-02-18T03:32:27.268Z,0.23
2023-02-18T03:33:35.410Z,0.17
2023-02-18T03:34:41.690Z,0.13
2023-02-18T03:35:45.396Z,0.20
2023-02-18T03:36:47.487Z,0.22
2023-02-18T03:37:58.316Z,0.12
2023-02-18T03:39:14.050Z,0.11
2023-02-18T03:40:17.208Z,0.18
2023-02-18T03:41:18.832Z,0.24
2023-02-18T03:42:24.775Z,0.30
2023-02-18T03:43:26.410Z,0.34
2023-02-18T03:44:27.953Z,0.29
2023-02-18T03:45:29.524Z,0.26
2023-02-18T03:46:32.094Z,0.09
2023-02-18T03:47:33.709Z,-0.04
2023-02-18T03:48:35.262Z,-0.10
2023-02-18T03:49:36.847Z,-0.33
2023-02-18T03:50:38.520Z,-0.50
2023-02-18T03:51:40.124Z,-0.60
2023-02-18T03:52:41.664Z,-0.68
2023-02-18T03:53:43.258Z,-0.68
2023-02-18T03:54:44.790Z,-0.72
2023-02-18T03:55:46.430Z,-0.76
2023-02-18T03:56:49.353Z,-0.79
2023-02-18T03:57:51.106Z,-0.80
2023-02-18T03:58:52.792Z,-0.78
2023-02-18T03:59:54.353Z,-0.72
2023-02-18T04:00:55.943Z,-0.66
2023-02-18T04:01:57.532Z,-0.55
2023-02-18T04:02:59.171Z,-0.40
2023-02-18T04:04:00.770Z,-0.31
2023-02-18T04:05:02.367Z,-0.34
2023-02-18T04:06:04.346Z,-0.32
2023-02-18T04:07:05.927Z,-0.23
2023-02-18T04:08:07.492Z,-0.12
2023-02-18T04:09:09.327Z,-0.07
2023-02-18T04:10:11.769Z,-0.11
2023-02-18T04:11:13.335Z,-0.16
2023-02-18T04:12:14.978Z,-0.25
2023-02-18T04:13:19.881Z,-0.25
2023-02-18T04:14:21.499Z,-0.19
2023-02-18T04:15:23.069Z,-0.11
2023-02-18T04:16:24.614Z,0.04
2023-02-18T04:17:26.587Z,0.18
2023-02-18T04:18:28.194Z,0.25
2023-02-18T04:19:29.721Z,0.29
2023-02-18T04:20:31.745Z,0.35
2023-02-18T04:21:33.977Z,0.41
2023-02-18T04:22:35.541Z,0.45
2023-02-18T04:23:37.085Z,0.52
2023-02-18T04:24:38.668Z,0.61
2023-02-18T04:25:40.452Z,0.67
2023-02-18T04:26:42.023Z,0.63
2023-02-18T04:27:43.616Z,0.55
2023-02-18T04:28:45.304Z,0.45
2023-02-18T04:29:46.883Z,0.25
2023-02-18T04:30:48.956Z,0.14
2023-02-18T04:31:50.611Z,0.07
2023-02-18T04:32:52.206Z,0.07
2023-02-18T04:33:53.771Z,-0.04
2023-02-18T04:34:55.331Z,-0.02
2023-02-18T04:35:56.932Z,0.02
2023-02-18T04:36:58.601Z,0.03
2023-02-18T04:38:00.167Z,0.01
2023-02-18T04:39:01.741Z,0.03
2023-02-18T04:40:03.866Z,0.00
2023-02-18T04:41:05.542Z,-0.07
2023-02-18T04:42:09.170Z,-0.07
2023-02-18T04:43:10.838Z,-0.06
2023-02-18T04:44:12.378Z,-0.06
2023-02-18T04:45:13.942Z,-0.04
2023-02-18T04:46:15.561Z,0.02
2023-02-18T04:47:17.252Z,-0.03
2023-02-18T04:48:18.998Z,0.00
2023-02-18T04:49:20.576Z,0.08
2023-02-18T04:50:23.199Z,0.16
2023-02-18T04:51:24.872Z,0.22
2023-02-18T04:52:26.554Z,0.25
2023-02-18T04:53:28.106Z,0.25
2023-02-18T04:54:29.685Z,0.20
2023-02-18T04:55:31.250Z,0.15
2023-02-18T04:56:32.768Z,0.13
2023-02-18T04:57:34.538Z,0.03
2023-02-18T04:58:36.163Z,-0.16
2023-02-18T04:59:37.768Z,-0.27
2023-02-18T05:00:39.334Z,-0.29
2023-02-18T05:01:40.935Z,-0.34
2023-02-18T05:02:42.964Z,-0.50
2023-02-18T05:03:46.129Z,-0.64
2023-02-18T05:04:47.781Z,-0.73
2023-02-18T05:05:49.318Z,-0.86
2023-02-18T05:06:51.090Z,-0.85
2023-02-18T05:07:52.764Z,-0.82
2023-02-18T05:08:54.404Z,-0.89
2023-02-18T05:09:55.967Z,-0.96
2023-02-18T05:10:57.588Z,-0.97
2023-02-18T05:11:59.206Z,-0.97
2023-02-18T05:13:01.058Z,-0.86
2023-02-18T05:14:03.053Z,-0.78
2023-02-18T05:15:05.299Z,-0.77
2023-02-18T05:16:07.403Z,-0.78
2023-02-18T05:17:09.293Z,-0.69
2023-02-18T05:18:10.884Z,-0.64
2023-02-18T05:19:16.633Z,-0.66
2023-02-18T05:20:18.403Z,-0.68
2023-02-18T05:21:20.430Z,-0.67
2023-02-18T05:22:21.954Z,-0.64
2023-02-18T05:23:25.789Z,-0.69
2023-02-18T05:24:27.376Z,-0.71
2023-02-18T05:25:28.934Z,-0.57
2023-02-18T05:26:30.540Z,-0.43
2023-02-18T05:27:32.259Z,-0.30
2023-02-18T05:28:34.264Z,-0.24
2023-02-18T05:29:35.840Z,-0.14
2023-02-18T05:30:37.431Z,-0.03
2023-02-18T05:31:39.101Z,0.07
2023-02-18T05:32:40.925Z,0.17
2023-02-18T05:33:42.706Z,0.19
2023-02-18T05:34:44.280Z,0.15
2023-02-18T05:35:45.879Z,0.18
2023-02-18T05:36:47.431Z,0.26
2023-02-18T05:37:48.978Z,0.26
2023-02-18T05:38:51.466Z,0.18
2023-02-18T05:39:53.115Z,0.23
2023-02-18T05:40:56.009Z,0.29
2023-02-18T05:41:57.589Z,0.34
2023-02-18T05:42:59.156Z,0.40
2023-02-18T05:44:19.452Z,0.42
2023-02-18T05:45:20.990Z,0.42
2023-02-18T05:46:22.724Z,0.34
2023-02-18T05:47:24.365Z,0.08
2023-02-18T05:48:25.924Z,-0.13
2023-02-18T05:49:29.221Z,-0.28
2023-02-18T05:50:30.809Z,-0.44
2023-02-18T05:51:32.422Z,-0.47
2023-02-18T05:52:34.048Z,-0.42
2023-02-18T05:53:35.615Z,-0.38
2023-02-18T05:54:38.476Z,-0.41
2023-02-18T05:55:40.041Z,-0.39
2023-02-18T05:56:41.630Z,-0.34
2023-02-18T05:57:43.192Z,-0.32
2023-02-18T05:58:45.056Z,-0.34
2023-02-18T05:59:46.626Z,-0.23
2023-02-18T06:00:48.136Z,-0.11
2023-02-18T06:01:49.834Z,0.00
2023-02-18T06:02:52.200Z,0.10
2023-02-18T06:03:53.775Z,0.20
2023-02-18T06:04:55.282Z,0.32
2023-02-18T06:05:57.071Z,0.45
2023-02-18T06:06:58.669Z,0.50
2023-02-18T06:08:00.271Z,0.51
2023-02-18T06:09:02.276Z,0.56
2023-02-18T06:10:05.093Z,0.64
2023-02-18T06:11:06.748Z,0.72
2023-02-18T06:12:08.303Z,0.81
2023-02-18T06:13:09.907Z,0.92
2023-02-18T06:14:11.507Z,0.98
2023-02-18T06:15:13.087Z,1.01
2023-02-18T06:16:14.765Z,1.06
2023-02-18T06:17:18.755Z,1.13
2023-02-18T06:18:21.030Z,1.19
2023-02-18T06:19:23.196Z,1.24
2023-02-18T06:20:24.774Z,1.32
2023-02-18T06:21:26.889Z,1.37
2023-02-18T06:22:28.520Z,1.32
2023-02-18T06:23:30.340Z,1.36
2023-02-18T06:24:32.129Z,1.41
2023-02-18T06:25:33.675Z,1.46
2023-02-18T06:26:35.344Z,1.54
2023-02-18T06:27:37.422Z,1.63
2023-02-18T06:28:38.990Z,1.73
2023-02-18T06:29:40.563Z,1.73
2023-02-18T06:30:42.357Z,1.67
2023-02-18T06:31:44.088Z,1.70
2023-02-18T06:32:45.743Z,1.63
2023-02-18T06:33:47.442Z,1.59
2023-02-18T06:34:49.314Z,1.56
2023-02-18T06:35:59.626Z,1.55
2023-02-18T06:37:01.535Z,1.54
2023-02-18T06:38:03.732Z,1.37
2023-02-18T06:39:07.545Z,1.23
2023-02-18T06:40:09.366Z,1.13
2023-02-18T06:41:12.587Z,1.07
2023-02-18T06:42:14.117Z,1.01
2023-02-18T06:43:16.228Z,0.93
2023-02-18T06:44:17.892Z,0.93
2023-02-18T06:45:19.664Z,0.94
2023-02-18T06:46:21.470Z,0.84
2023-02-18T06:47:23.051Z,0.87
2023-02-18T06:48:24.877Z,0.94
2023-02-18T06:49:26.455Z,0.99
2023-02-18T06:50:27.964Z,1.02
2023-02-18T06:51:29.785Z,1.13
2023-02-18T06:52:33.423Z,1.33
2023-02-18T06:53:35.002Z,1.37
2023-02-18T06:54:36.820Z,1.42
2023-02-18T06:55:38.995Z,1.46
2023-02-18T06:56:40.536Z,1.57
2023-02-18T06:57:42.378Z,1.68
2023-02-18T06:58:43.944Z,1.77
2023-02-18T06:59:45.614Z,1.82
2023-02-18T07:00:47.291Z,1.82
2023-02-18T07:01:48.856Z,1.86
2023-02-18T07:02:50.649Z,1.94
2023-02-18T07:03:52.232Z,2.02
2023-02-18T07:04:53.863Z,2.12
2023-02-18T07:05:55.695Z,2.24
2023-02-18T07:06:57.272Z,2.34
2023-02-18T07:07:58.863Z,2.41
2023-02-18T07:09:00.524Z,2.45
2023-02-18T07:10:02.341Z,2.50
2023-02-18T07:11:04.273Z,2.51
2023-02-18T07:12:06.123Z,2.56
2023-02-18T07:13:07.845Z,2.62
2023-02-18T07:14:09.406Z,2.70
2023-02-18T07:15:11.760Z,2.72
2023-02-18T07:16:13.485Z,2.72
2023-02-18T07:17:15.164Z,2.66
2023-02-18T07:18:16.779Z,2.62
2023-02-18T07:19:19.115Z,2.64
2023-02-18T07:20:21.216Z,2.69
2023-02-18T07:21:22.750Z,2.76
2023-02-18T07:22:24.315Z,2.70
2023-02-18T07:23:25.912Z,2.78
2023-02-18T07:24:27.489Z,3.17
2023-02-18T07:25:29.270Z,4.06
2023-02-18T07:26:30.897Z,4.63
2023-02-18T07:27:32.499Z,4.73
2023-02-18T07:28:34.397Z,4.76
2023-02-18T07:29:35.952Z,4.71
2023-02-18T07:30:37.522Z,4.69
2023-02-18T07:31:39.514Z,4.67
2023-02-18T07:32:41.312Z,4.64
2023-02-18T07:33:43.200Z,4.62
2023-02-18T07:34:44.923Z,4.59
2023-02-18T07:35:46.494Z,4.61
2023-02-18T07:36:49.004Z,4.63
2023-02-18T07:37:51.287Z,4.55
2023-02-18T07:38:52.886Z,4.57
2023-02-18T07:39:54.476Z,4.64
2023-02-18T07:40:57.248Z,4.66
2023-02-18T07:41:58.952Z,4.67
2023-02-18T07:43:00.528Z,4.62
2023-02-18T07:44:02.065Z,4.40
2023-02-18T07:45:03.920Z,4.28
2023-02-18T07:46:07.363Z,4.37
2023-02-18T07:47:12.861Z,4.48
2023-02-18T07:48:14.547Z,4.58
2023-02-18T07:49:16.295Z,4.62
2023-02-18T07:50:18.043Z,4.66
2023-02-18T07:51:19.773Z,4.68
2023-02-18T07:52:21.346Z,4.69
2023-02-18T07:53:22.870Z,4.72
2023-02-18T07:54:24.546Z,4.70
2023-02-18T07:55:46.081Z,4.61
2023-02-18T07:56:47.798Z,4.59
2023-02-18T07:58:00.918Z,4.66
2023-02-18T07:59:03.091Z,4.74
2023-02-18T08:00:05.057Z,4.72
2023-02-18T08:01:10.101Z,4.71
2023-02-18T08:02:18.876Z,4.76
2023-02-18T08:03:23.373Z,4.76
2023-02-18T08:04:24.985Z,4.72
2023-02-18T08:05:26.608Z,4.83
2023-02-18T08:06:41.244Z,4.89
2023-02-18T08:07:43.138Z,4.67
2023-02-18T08:09:46.500Z,4.70
2023-02-18T08:10:49.469Z,4.76
2023-02-18T08:11:50.981Z,4.59
2023-02-18T08:12:52.517Z,4.33
2023-02-18T08:13:54.085Z,4.09
2023-02-18T08:14:55.675Z,3.92
2023-02-18T08:15:58.163Z,4.07
2023-02-18T08:16:59.776Z,4.20
2023-02-18T08:18:01.608Z,4.46
2023-02-18T08:19:06.050Z,4.68
2023-02-18T08:20:08.542Z,4.91
2023-02-18T08:21:10.583Z,4.95
2023-02-18T08:22:12.139Z,5.06
2023-02-18T08:23:15.623Z,5.27
2023-02-18T08:24:17.244Z,5.42
2023-02-18T08:25:29.276Z,5.47
2023-02-18T08:26:31.704Z,5.40
2023-02-18T08:27:33.262Z,5.29
2023-02-18T08:28:35.913Z,5.21
2023-02-18T08:29:37.510Z,5.26
2023-02-18T08:30:39.159Z,5.20
2023-02-18T08:31:42.656Z,5.25
2023-02-18T08:32:45.512Z,5.30
2023-02-18T08:33:48.006Z,5.32
2023-02-18T08:34:49.574Z,5.37
2023-02-18T08:35:53.448Z,5.39
2023-02-18T08:36:55.043Z,5.40
2023-02-18T08:37:57.755Z,5.38
2023-02-18T08:39:00.182Z,5.37
2023-02-18T08:40:03.348Z,5.42
2023-02-18T08:41:07.293Z,5.49
2023-02-18T08:42:09.014Z,5.52
2023-02-18T08:43:11.157Z,5.62
2023-02-18T08:44:12.759Z,5.63
2023-02-18T08:45:14.447Z,5.41
2023-02-18T08:46:19.222Z,5.18
2023-02-18T08:48:18.158Z,4.88
2023-02-18T08:48:48.499Z,4.72
2023-02-18T08:49:50.203Z,4.60
2023-02-18T08:50:51.838Z,4.45
2023-02-18T08:51:53.419Z,4.23
2023-02-18T08:52:56.336Z,4.16
2023-02-18T08:53:58.511Z,4.25
2023-02-18T08:55:00.079Z,4.28
2023-02-18T08:56:01.636Z,4.21
2023-02-18T08:57:03.238Z,4.08
2023-02-18T08:58:05.749Z,3.97
2023-02-18T08:59:07.343Z,4.13
2023-02-18T09:00:09.612Z,4.32
2023-02-18T09:01:12.624Z,4.52
2023-02-18T09:02:14.989Z,4.62
2023-02-18T09:03:16.550Z,4.77
2023-02-18T09:04:18.478Z,4.89
2023-02-18T09:05:20.073Z,4.88
2023-02-18T09:06:21.689Z,4.95
2023-02-18T09:07:23.255Z,5.01
2023-02-18T09:08:24.818Z,5.00
2023-02-18T09:09:26.354Z,4.93
2023-02-18T09:10:27.941Z,4.94
2023-02-18T09:11:29.507Z,4.91
2023-02-18T09:12:31.325Z,5.01
2023-02-18T09:13:33.166Z,5.09
2023-02-18T09:14:35.023Z,5.02
2023-02-18T09:15:36.862Z,4.96
2023-02-18T09:16:39.528Z,5.02
2023-02-18T09:17:41.194Z,5.19
2023-02-18T09:18:42.777Z,5.42
2023-02-18T09:19:44.287Z,5.66
2023-02-18T09:20:45.933Z,5.77
2023-02-18T09:21:47.545Z,5.84
2023-02-18T09:22:49.133Z,5.89
2023-02-18T09:23:51.536Z,5.88
2023-02-18T09:24:53.205Z,5.99
2023-02-18T09:25:55.275Z,6.06
2023-02-18T09:26:56.830Z,6.11
2023-02-18T09:27:58.464Z,6.21
2023-02-18T09:29:00.195Z,6.28
2023-02-18T09:30:01.835Z,6.40
2023-02-18T09:31:08.960Z,6.45
2023-02-18T09:32:14.526Z,6.45
2023-02-18T09:33:22.065Z,6.98
2023-02-18T09:34:23.668Z,7.12
2023-02-18T09:35:25.503Z,7.02
2023-02-18T09:36:27.871Z,7.05
2023-02-18T09:37:29.539Z,7.05
2023-02-18T09:38:31.472Z,7.07
2023-02-18T09:39:33.060Z,7.10
2023-02-18T09:40:37.523Z,7.20
2023-02-18T09:42:14.062Z,7.28
2023-02-18T09:43:36.484Z,7.42
2023-02-18T09:45:02.464Z,7.56
2023-02-18T09:46:06.899Z,7.93
2023-02-18T09:47:34.803Z,8.64
2023-02-18T09:48:38.445Z,8.81
2023-02-18T09:49:54.003Z,8.70
2023-02-18T09:50:55.743Z,8.57
2023-02-18T09:52:06.876Z,8.57
2023-02-18T09:53:13.147Z,8.46
2023-02-18T09:54:17.960Z,8.37
2023-02-18T09:55:29.950Z,8.36
2023-02-18T09:56:35.475Z,8.39
2023-02-18T09:57:48.560Z,8.49
2023-02-18T09:58:51.529Z,8.50
2023-02-18T10:00:15.308Z,8.50
2023-02-18T10:01:35.593Z,8.32
2023-02-18T10:02:39.591Z,8.06
2023-02-18T10:03:43.809Z,7.83
2023-02-18T10:04:46.026Z,7.54
2023-02-18T10:06:06.872Z,7.41
2023-02-18T10:07:21.842Z,7.36
2023-02-18T10:08:28.015Z,7.33
2023-02-18T10:09:37.233Z,7.26
2023-02-18T10:10:42.915Z,7.23
2023-02-18T10:11:49.512Z,7.34
2023-02-18T10:12:52.819Z,7.44
2023-02-18T10:13:55.154Z,7.45
2023-02-18T10:15:00.183Z,7.47
2023-02-18T10:16:03.963Z,7.66
2023-02-18T10:17:07.070Z,7.84
2023-02-18T10:18:19.374Z,7.75
2023-02-18T10:19:29.806Z,7.74
2023-02-18T10:20:33.209Z,7.86
2023-02-18T10:21:36.239Z,7.95
2023-02-18T10:22:38.700Z,7.95
2023-02-18T10:23:54.996Z,7.95
2023-02-18T10:25:03.173Z,7.96
2023-02-18T10:26:08.232Z,7.96
2023-02-18T10:27:17.650Z,8.02
2023-02-18T10:28:23.354Z,8.04
2023-02-18T10:29:25.884Z,8.07
2023-02-18T10:30:30.362Z,8.09
2023-02-18T10:31:39.377Z,8.04
2023-02-18T10:32:44.335Z,8.06
2023-02-18T10:33:57.218Z,8.12
2023-02-18T10:35:21.245Z,8.20
2023-02-18T10:36:36.780Z,8.23
2023-02-18T10:38:10.653Z,8.36
2023-02-18T10:39:12.163Z,8.50
2023-02-18T10:40:50.551Z,8.60
2023-02-18T10:42:18.777Z,8.66
2023-02-18T10:43:54.334Z,8.77
2023-02-18T10:45:07.583Z,8.92
2023-02-18T10:46:22.685Z,9.07
2023-02-18T10:47:35.306Z,9.21
2023-02-18T10:49:00.193Z,9.30
2023-02-18T10:50:17.564Z,9.36
2023-02-18T10:51:22.004Z,9.40
2023-02-18T10:52:24.967Z,9.43
2023-02-18T10:53:37.340Z,9.41
2023-02-18T10:54:58.973Z,9.54
2023-02-18T10:56:01.018Z,9.64
2023-02-18T10:57:04.743Z,9.71
2023-02-18T10:58:24.869Z,9.70
2023-02-18T10:59:32.983Z,9.80
2023-02-18T11:00:40.030Z,9.87
2023-02-18T11:01:43.826Z,9.93
2023-02-18T11:02:47.255Z,9.96
2023-02-18T11:03:51.681Z,9.85
2023-02-18T11:04:53.426Z,9.82
2023-02-18T11:05:56.847Z,9.82
2023-02-18T11:07:04.876Z,9.80
2023-02-18T11:08:09.623Z,9.89
2023-02-18T11:09:38.852Z,9.93
2023-02-18T11:10:43.945Z,9.95
2023-02-18T11:11:50.692Z,9.96
2023-02-18T11:13:02.007Z,9.98
2023-02-18T11:14:07.659Z,10.00
2023-02-18T11:15:15.304Z,9.94
2023-02-18T11:16:17.426Z,9.85
2023-02-18T11:17:27.938Z,9.87
2023-02-18T11:18:37.703Z,9.84
2023-02-18T11:19:39.752Z,9.81
2023-02-18T11:20:41.601Z,9.85
2023-02-18T11:21:43.153Z,9.91
2023-02-18T11:22:44.743Z,9.91
2023-02-18T11:23:52.227Z,9.90
2023-02-18T11:24:59.395Z,9.93
2023-02-18T11:26:00.845Z,9.91
2023-02-18T11:27:02.463Z,9.89
2023-02-18T11:28:13.287Z,9.94
2023-02-18T11:29:19.619Z,9.96
2023-02-18T11:30:23.478Z,9.96
2023-02-18T11:31:32.204Z,9.99
2023-02-18T11:32:36.633Z,10.15
2023-02-18T11:33:50.678Z,10.31
2023-02-18T11:34:52.494Z,10.42
2023-02-18T11:35:56.462Z,10.56
2023-02-18T11:37:19.440Z,10.58
2023-02-18T11:38:34.678Z,10.54
2023-02-18T11:39:36.588Z,10.64
2023-02-18T11:40:38.159Z,10.68
2023-02-18T11:41:44.095Z,10.72
2023-02-18T11:42:45.687Z,10.79
2023-02-18T11:43:51.094Z,10.80
2023-02-18T11:44:58.479Z,10.74
2023-02-18T11:46:19.984Z,10.66
2023-02-18T11:47:41.695Z,10.58
2023-02-18T11:48:43.616Z,10.52
2023-02-18T11:50:18.952Z,10.50
2023-02-18T11:51:33.446Z,10.60
2023-02-18T11:52:34.943Z,10.64
2023-02-18T11:53:37.788Z,10.75
2023-02-18T11:54:39.345Z,10.84
2023-02-18T11:55:55.407Z,10.90
2023-02-18T11:57:09.572Z,10.91
2023-02-18T11:58:14.056Z,10.95
2023-02-18T11:59:15.621Z,11.06
2023-02-18T12:00:40.180Z,11.15
2023-02-18T12:01:51.709Z,11.19
2023-02-18T12:02:56.672Z,11.20
2023-02-18T12:04:09.445Z,11.23
2023-02-18T12:05:26.422Z,11.28
2023-02-18T12:06:39.861Z,11.32
2023-02-18T12:07:49.470Z,11.37
2023-02-18T12:08:59.625Z,11.40
2023-02-18T12:10:13.180Z,11.44
2023-02-18T12:11:23.271Z,11.53
2023-02-18T12:12:32.235Z,11.66
2023-02-18T12:13:46.386Z,11.74
2023-02-18T12:14:48.160Z,11.90
2023-02-18T12:16:03.348Z,11.90
2023-02-18T12:17:23.432Z,11.93
2023-02-18T12:18:42.956Z,12.00
2023-02-18T12:20:22.729Z,12.07
2023-02-18T12:21:41.990Z,12.10
2023-02-18T12:22:44.626Z,12.03
2023-02-18T12:24:12.072Z,12.03
2023-02-18T12:25:23.897Z,12.06
2023-02-18T12:26:36.099Z,12.14
2023-02-18T12:27:56.974Z,12.23
2023-02-18T12:29:11.982Z,12.29
2023-02-18T12:30:35.723Z,12.35
2023-02-18T12:32:14.840Z,12.38
2023-02-18T12:33:42.595Z,12.46
2023-02-18T12:34:59.906Z,12.54
2023-02-18T12:36:43.967Z,12.60
2023-02-18T12:37:52.082Z,12.63
2023-02-18T12:39:02.685Z,12.60
2023-02-18T12:40:40.494Z,12.67
2023-02-18T12:41:52.212Z,12.66
2023-02-18T12:43:12.029Z,12.67
2023-02-18T12:44:45.812Z,12.73
2023-02-18T12:46:09.807Z,12.78
2023-02-18T12:47:31.178Z,12.80
2023-02-18T12:48:58.960Z,12.73
2023-02-18T12:50:23.870Z,12.69
2023-02-18T12:51:30.471Z,12.68
2023-02-18T12:52:50.951Z,12.69
2023-02-18T12:54:01.314Z,12.75
2023-02-18T12:55:27.811Z,12.77
2023-02-18T12:56:35.370Z,12.82
2023-02-18T12:58:00.127Z,12.85
2023-02-18T12:59:37.266Z,12.88
2023-02-18T13:00:45.452Z,12.87
2023-02-18T13:02:20.775Z,12.92
2023-02-18T13:03:39.529Z,12.94
2023-02-18T13:05:03.523Z,12.96
2023-02-18T13:06:26.359Z,13.01
2023-02-18T13:07:41.700Z,13.05
2023-02-18T13:09:01.909Z,13.06
2023-02-18T13:10:15.500Z,13.14
2023-02-18T13:11:33.317Z,13.11
2023-02-18T13:12:49.844Z,13.13
2023-02-18T13:14:09.976Z,13.16
2023-02-18T13:15:37.110Z,13.17
2023-02-18T13:16:41.486Z,13.24
2023-02-18T13:17:44.140Z,13.31
2023-02-18T13:18:59.962Z,13.44
2023-02-18T13:20:14.498Z,13.54
2023-02-18T13:21:17.288Z,13.61
2023-02-18T13:22:22.878Z,13.60
2023-02-18T13:23:40.198Z,13.70
2023-02-18T13:24:47.769Z,13.72
2023-02-18T13:26:00.977Z,13.73
2023-02-18T13:27:18.304Z,13.81
2023-02-18T13:28:42.483Z,13.90
2023-02-18T13:30:05.078Z,13.95
2023-02-18T13:31:44.304Z,13.95
2023-02-18T13:33:10.009Z,13.96
2023-02-18T13:34:12.035Z,13.95
2023-02-18T13:35:13.542Z,13.89
2023-02-18T13:36:30.571Z,13.90
2023-02-18T13:37:55.588Z,13.96
2023-02-18T13:39:01.772Z,13.98
2023-02-18T13:40:04.878Z,14.01
2023-02-18T13:41:07.046Z,14.05
2023-02-18T13:42:17.604Z,14.14
2023-02-18T13:43:28.267Z,14.20
2023-02-18T13:44:30.415Z,14.27
2023-02-18T13:45:33.185Z,14.24
2023-02-18T13:46:51.814Z,14.18
2023-02-18T13:47:54.454Z,14.15
2023-02-18T13:49:07.616Z,14.17
2023-02-18T13:50:27.573Z,14.16
2023-02-18T13:51:46.405Z,14.14
2023-02-18T13:52:50.239Z,14.18
2023-02-18T13:53:52.765Z,14.21
2023-02-18T13:54:55.648Z,14.23
2023-02-18T13:56:17.433Z,14.20
2023-02-18T13:57:26.964Z,14.17
2023-02-18T13:58:43.074Z,14.16
2023-02-18T13:59:49.405Z,14.18
2023-02-18T14:01:01.383Z,14.17
2023-02-18T14:02:34.186Z,14.15
2023-02-18T14:03:45.093Z,14.16
2023-02-18T14:04:46.600Z,14.17
2023-02-18T14:05:48.249Z,14.16
2023-02-18T14:07:26.989Z,14.15
2023-02-18T14:08:38.894Z,14.17
2023-02-18T14:09:43.004Z,14.17
2023-02-18T14:11:13.722Z,14.18
2023-02-18T14:12:39.188Z,14.24
2023-02-18T14:14:13.506Z,14.29
2023-02-18T14:15:18.042Z,14.36
2023-02-18T14:16:20.272Z,14.35
2023-02-18T14:17:21.789Z,14.35
2023-02-18T14:18:32.140Z,14.41
2023-02-18T14:19:33.724Z,14.45
2023-02-18T14:20:38.424Z,14.49
2023-02-18T14:21:42.001Z,14.49
2023-02-18T14:22:49.452Z,14.48
2023-02-18T14:23:53.715Z,14.48
2023-02-18T14:25:13.410Z,14.50
2023-02-18T14:26:14.986Z,14.51
2023-02-18T14:27:17.279Z,14.56
2023-02-18T14:28:33.987Z,14.61
2023-02-18T14:29:35.695Z,14.64
2023-02-18T14:30:42.010Z,14.68
2023-02-18T14:31:54.056Z,14.72
2023-02-18T15:00:16.933Z,13.34
2023-02-18T15:01:23.056Z,13.39
2023-02-18T15:02:27.859Z,13.44
2023-02-18T15:03:29.432Z,13.47
2023-02-18T15:04:30.995Z,13.54
2023-02-18T15:05:32.963Z,13.62
2023-02-18T15:06:37.241Z,13.77
2023-02-18T15:07:39.004Z,13.85
2023-02-18T15:08:40.551Z,13.88